Rivolto Air Base

LIPI · Friuli Venezia Giulia, 意大利

使用的METAR站距离机场35 km。
罗盘
风向 的 风向 050° Rivolto Air Base 6/24
风: 4 kt, 2 beaufort

4 kt

1 kt
改变
0 ft 1.000 2.000 3.000 4.000 5.000
Cloud Cloud
FEW 2.000
Cloud Cloud Cloud Cloud Cloud Cloud
BKN 5.000
METAR LIPA 020855Z 05004KT 9999 FEW020 BKN050 10/10 Q1010

METAR Rivolto Air Base - LIPI

Rivolto Air Base是,意大利中的中型机场。 该机场位于纬度45,97940和经度13,04920。 该机场有一条跑道: 6/24. 本场的ICAO机场代码为LIPI。 机场在Milano FIR中。

该航空气象观测是针对Aviano Air Base在2024年3月2日 09:55, 当地时间进行的。

机场观察

风向为050°,速度为4 kt。

可见度为10 km 或者更多。

有几云在2.000 ft的高度 和 碎云在5.000 ft的高度。 破损或更高的上限为5.000 ft。

温度为10 °C,阵风为8 °C。 露点为10 °C,相对湿度为100%。 海平面上的气压为1010 hPa (QNH)。

白天

今天,太阳从06:43升起,在17:55降落。 这适用于Rivolto Air Base,世界夏令时可能有所不同。 当地时间与世界标准时间之间的时差为+1 小时。 当前,没有夏令时有效。

公司介绍

我们没有关于这个机场的公司信息。

体会

到Vliegles.nl去找飞行课程,跳伞和其他飞行体验。 浏览页面,了解Rivolto Air Base附近所有可用的活动。 你也可以使用搜索功能来寻找你所在地附近的特定飞行课程、跳伞或其他飞行体验。

跑道

Id 标题 侧风 逆风 侧风 %
6/24 060°-240° 4 kt 17 %

逆风成分最大的方向会被突出显示,并用于横风计算。 这并不一定意味着这个方向在使用。

乌云

2.000 ft FEW 几云
5.000 ft BKN 碎云

温度 & 天气

温度 10 °C
露点 10 °C
相对湿度 100%
风寒 8 °C
Kp-index 0 (0-9)

白天

日出
06:45
中午
12:21
日落
17:57 (6:51)

小工具

你想在你的网站上有一个关于Rivolto Air Base的当前航空天气(METAR)的小部件吗?

显示HTML代码
?>